Time;durP1;ratioP1;P1;durP2;ratioP2;P2;SDS_P1;SDS_P2;PMS_P1;PMS_P2;Temp;Humidity;BMP_temperature;BMP_pressure;BME280_temperature;BME280_humidity;BME280_pressure;Samples;Min_cycle;Max_cycle;Signal;HPM_P1;HPM_P2
2022/11/23 00:02:02;;;;;;;4.50;1.10;;;5.10;99.90;;;;;;4992518;28;20196;-79
2022/11/23 00:04:27;;;;;;;6.63;0.93;;;5.00;99.90;;;;;;5009816;28;20196;-78
2022/11/23 00:06:53;;;;;;;3.53;1.00;;;5.00;99.90;;;;;;4991845;28;20219;-77
2022/11/23 00:09:19;;;;;;;3.33;0.90;;;5.00;99.90;;;;;;4992515;28;20223;-75
2022/11/23 00:11:44;;;;;;;1.43;1.00;;;5.00;99.90;;;;;;5008853;28;20655;-77
2022/11/23 00:14:10;;;;;;;5.37;1.60;;;5.00;99.90;;;;;;5010290;28;20185;-75
2022/11/23 00:16:35;;;;;;;3.30;1.40;;;5.00;99.90;;;;;;5008617;28;20189;-76
2022/11/23 00:19:02;;;;;;;1.30;0.90;;;5.00;99.90;;;;;;5008730;28;20278;-76
2022/11/23 00:21:30;;;;;;;4.50;1.13;;;5.00;99.90;;;;;;5010175;28;20278;-76
2022/11/23 00:23:56;;;;;;;3.78;1.30;;;5.10;99.90;;;;;;5008621;28;20935;-76
2022/11/23 00:26:21;;;;;;;3.47;1.20;;;5.00;99.90;;;;;;5009495;28;20610;-78
2022/11/23 00:28:47;;;;;;;3.00;1.20;;;5.00;99.90;;;;;;4991728;28;20485;-78
2022/11/23 00:31:15;;;;;;;3.47;1.30;;;5.00;99.90;;;;;;5009187;28;20213;-77
2022/11/23 00:33:41;;;;;;;1.20;0.80;;;5.00;99.90;;;;;;5009387;28;20561;-78
2022/11/23 00:36:12;;;;;;;1.80;0.90;;;4.90;99.90;;;;;;4991645;28;20286;-81
2022/11/23 00:38:39;;;;;;;3.93;1.10;;;5.00;99.90;;;;;;5010170;28;20498;-79
2022/11/23 00:41:07;;;;;;;6.40;1.10;;;5.10;99.90;;;;;;4994759;28;21023;-79
2022/11/23 00:43:33;;;;;;;3.67;1.50;;;4.90;99.90;;;;;;5012525;28;20503;-78
2022/11/23 00:46:07;;;;;;;3.90;1.60;;;4.90;99.90;;;;;;5011315;28;20424;-78
2022/11/23 00:48:33;;;;;;;3.67;0.90;;;4.90;99.90;;;;;;5012763;28;21069;-78
2022/11/23 00:51:00;;;;;;;3.90;1.10;;;4.90;99.90;;;;;;5011065;28;20443;-78
2022/11/23 00:53:26;;;;;;;3.47;0.90;;;5.00;99.90;;;;;;4978811;28;20428;-78
2022/11/23 00:55:53;;;;;;;4.20;1.00;;;5.00;99.90;;;;;;4995033;28;20424;-78
2022/11/23 00:58:19;;;;;;;4.40;1.10;;;5.00;99.90;;;;;;5012629;28;20455;-79
2022/11/23 01:00:44;;;;;;;5.77;1.47;;;5.00;99.90;;;;;;4978642;28;20494;-79
2022/11/23 01:03:10;;;;;;;3.80;1.30;;;5.10;99.90;;;;;;5011239;28;20189;-78
2022/11/23 01:05:36;;;;;;;1.47;0.90;;;5.10;99.90;;;;;;4978436;28;20701;-77
2022/11/23 01:08:03;;;;;;;2.07;1.00;;;5.00;99.90;;;;;;5010979;28;20271;-78
2022/11/23 01:10:30;;;;;;;5.70;1.10;;;5.00;99.90;;;;;;5010770;28;20443;-78
2022/11/23 01:12:55;;;;;;;3.83;1.13;;;5.10;99.90;;;;;;5011062;28;20957;-77
2022/11/23 01:15:21;;;;;;;7.17;2.10;;;5.00;99.90;;;;;;5011067;28;20188;-75
2022/11/23 01:17:47;;;;;;;4.07;1.30;;;5.00;99.90;;;;;;5012169;28;20202;-76
2022/11/23 01:20:12;;;;;;;1.33;0.90;;;4.90;99.90;;;;;;5011866;28;20284;-75
2022/11/23 01:22:38;;;;;;;5.63;1.50;;;4.90;99.90;;;;;;5011027;28;20186;-76
2022/11/23 01:25:04;;;;;;;3.10;1.40;;;4.90;99.90;;;;;;4995406;28;20200;-77
2022/11/23 01:27:29;;;;;;;3.33;0.97;;;4.90;99.90;;;;;;5011670;28;20234;-76
2022/11/23 01:29:55;;;;;;;2.60;0.77;;;4.90;99.90;;;;;;5012449;28;20444;-76
2022/11/23 01:32:21;;;;;;;5.27;1.30;;;5.00;99.90;;;;;;5010894;28;20268;-76
2022/11/23 01:34:46;;;;;;;5.23;0.90;;;5.00;99.90;;;;;;5012230;28;20261;-76
2022/11/23 01:37:12;;;;;;;3.20;0.80;;;5.00;99.90;;;;;;5010729;28;20189;-76
2022/11/23 01:39:37;;;;;;;2.40;0.77;;;5.10;99.90;;;;;;5012098;28;20322;-76
2022/11/23 01:42:06;;;;;;;6.20;1.10;;;5.10;99.90;;;;;;5012265;28;20189;-76
2022/11/23 01:44:34;;;;;;;3.17;1.33;;;5.10;99.90;;;;;;5010650;28;20279;-75
2022/11/23 01:47:10;;;;;;;2.53;0.73;;;5.10;99.90;;;;;;5011674;28;20529;-80
2022/11/23 01:49:41;;;;;;;4.43;0.82;;;5.00;99.90;;;;;;5009464;28;20646;-78
2022/11/23 01:52:14;;;;;;;1.80;0.80;;;5.00;99.90;;;;;;5011449;28;20262;-77
2022/11/23 01:54:45;;;;;;;0.90;0.60;;;5.00;99.90;;;;;;5011443;28;20416;-77
2022/11/23 01:57:17;;;;;;;7.93;1.03;;;5.00;99.90;;;;;;5010150;28;20433;-82
2022/11/23 01:59:43;;;;;;;4.30;1.10;;;5.00;99.90;;;;;;5011319;28;20463;-79
2022/11/23 02:02:09;;;;;;;4.83;0.90;;;5.00;99.90;;;;;;5010176;28;20514;-78
2022/11/23 02:04:39;;;;;;;3.73;0.83;;;4.90;99.90;;;;;;5010347;28;20520;-78
2022/11/23 02:07:05;;;;;;;4.40;1.13;;;5.00;99.90;;;;;;5009774;28;20208;-76
2022/11/23 02:09:32;;;;;;;2.40;0.90;;;4.90;99.90;;;;;;5009798;28;20426;-77
2022/11/23 02:11:58;;;;;;;4.37;1.23;;;4.90;99.90;;;;;;4993713;28;20416;-76
2022/11/23 02:14:24;;;;;;;5.17;0.97;;;4.90;99.90;;;;;;5009347;28;20948;-77
2022/11/23 02:16:50;;;;;;;8.27;1.15;;;4.90;99.90;;;;;;5010443;28;20189;-77
2022/11/23 02:19:33;;;;;;;4.57;1.17;;;5.00;99.90;;;;;;4993025;28;20258;-77
2022/11/23 02:21:59;;;;;;;5.83;1.10;;;4.90;99.90;;;;;;5009593;28;20480;-76
2022/11/23 02:24:32;;;;;;;4.53;0.90;;;4.90;99.90;;;;;;5008974;28;20527;-77
2022/11/23 02:26:58;;;;;;;5.17;1.00;;;4.80;99.90;;;;;;5010854;28;20209;-78
2022/11/23 02:29:25;;;;;;;6.90;1.30;;;4.90;99.90;;;;;;5010795;28;21047;-77
2022/11/23 02:31:51;;;;;;;1.35;0.80;;;5.00;99.90;;;;;;5010812;28;20176;-77
2022/11/23 02:34:17;;;;;;;3.13;1.63;;;4.90;99.90;;;;;;5010567;28;20748;-76
2022/11/23 02:36:52;;;;;;;3.73;1.00;;;4.90;99.90;;;;;;5009515;28;20435;-76
2022/11/23 02:39:33;;;;;;;5.70;1.37;;;5.00;99.90;;;;;;5009256;28;20188;-78
2022/11/23 02:41:59;;;;;;;1.52;0.73;;;5.00;99.90;;;;;;5010615;28;20423;-79
2022/11/23 02:44:31;;;;;;;4.77;0.93;;;5.00;99.90;;;;;;5009188;28;20188;-78
2022/11/23 02:46:57;;;;;;;7.20;0.97;;;5.00;99.90;;;;;;5010238;28;20825;-81
2022/11/23 02:49:23;;;;;;;3.87;1.00;;;5.10;99.90;;;;;;4992197;28;20424;-81
2022/11/23 02:51:49;;;;;;;3.80;1.13;;;5.10;99.90;;;;;;4992407;28;20428;-79
2022/11/23 02:54:14;;;;;;;6.30;1.20;;;5.10;99.90;;;;;;5008637;28;20426;-80
2022/11/23 02:56:40;;;;;;;2.00;1.00;;;5.10;99.90;;;;;;5008521;28;20189;-79
2022/11/23 02:59:06;;;;;;;2.67;0.90;;;5.20;99.90;;;;;;4976369;28;20202;-78
2022/11/23 03:01:31;;;;;;;3.30;1.07;;;5.20;99.90;;;;;;4991531;28;20255;-76
2022/11/23 03:03:57;;;;;;;2.60;0.80;;;5.20;99.90;;;;;;5008879;28;20177;-76
2022/11/23 03:06:22;;;;;;;7.27;1.30;;;5.20;99.90;;;;;;4992130;28;20276;-77
2022/11/23 03:08:48;;;;;;;4.10;1.30;;;5.20;99.90;;;;;;5008279;28;20180;-78
2022/11/23 03:11:13;;;;;;;3.60;1.00;;;5.20;99.90;;;;;;5009255;28;20343;-77
2022/11/23 03:13:39;;;;;;;7.73;0.90;;;5.30;99.90;;;;;;5009896;28;20264;-78
2022/11/23 03:16:05;;;;;;;4.60;1.00;;;5.30;99.90;;;;;;5008208;28;20856;-77
2022/11/23 03:18:30;;;;;;;3.17;0.90;;;5.30;99.90;;;;;;5009432;28;20663;-80
2022/11/23 03:21:04;;;;;;;7.23;1.00;;;5.30;99.90;;;;;;5008040;28;20215;-79
2022/11/23 03:23:30;;;;;;;2.77;1.20;;;5.30;99.90;;;;;;5009356;28;20177;-78
2022/11/23 03:25:57;;;;;;;6.65;1.00;;;5.30;99.90;;;;;;5008045;28;20432;-77
2022/11/23 03:28:23;;;;;;;3.80;1.07;;;5.20;99.90;;;;;;4998740;28;20243;-81
2022/11/23 03:30:48;;;;;;;8.90;1.30;;;5.10;99.90;;;;;;5015781;28;20458;-81
2022/11/23 03:33:14;;;;;;;3.80;1.20;;;5.10;99.90;;;;;;5019092;28;20431;-75
2022/11/23 03:35:39;;;;;;;5.60;1.27;;;5.10;99.90;;;;;;5018358;28;20181;-77
2022/11/23 03:38:05;;;;;;;6.00;0.90;;;5.10;99.90;;;;;;5018365;28;20316;-77
2022/11/23 03:40:31;;;;;;;7.47;1.43;;;5.10;99.90;;;;;;5002154;28;20223;-76
2022/11/23 03:42:56;;;;;;;2.67;0.83;;;5.10;99.90;;;;;;5034540;28;20183;-79
2022/11/23 03:45:22;;;;;;;2.80;0.87;;;5.10;99.90;;;;;;5027318;28;20220;-80
2022/11/23 03:47:47;;;;;;;4.07;0.70;;;5.10;99.90;;;;;;5015169;28;20825;-80
2022/11/23 03:50:13;;;;;;;3.13;1.57;;;5.10;99.90;;;;;;4997309;28;20231;-79
2022/11/23 03:52:39;;;;;;;4.27;1.40;;;5.10;99.90;;;;;;5012511;28;20591;-80
2022/11/23 03:55:05;;;;;;;3.23;0.80;;;5.10;99.90;;;;;;5011206;28;20181;-80
2022/11/23 03:57:30;;;;;;;7.37;1.87;;;5.10;99.90;;;;;;5011772;28;20217;-81
2022/11/23 03:59:56;;;;;;;3.00;0.90;;;5.10;99.90;;;;;;5010861;28;20880;-81
2022/11/23 04:02:21;;;;;;;3.03;1.00;;;5.10;99.90;;;;;;5011504;28;20682;-81
2022/11/23 04:04:47;;;;;;;8.53;1.37;;;5.10;99.90;;;;;;5011463;28;20187;-80
2022/11/23 04:07:13;;;;;;;8.23;1.00;;;5.10;99.90;;;;;;5013362;28;20212;-80
2022/11/23 04:09:38;;;;;;;2.33;1.10;;;5.00;99.90;;;;;;5011131;28;20651;-79
2022/11/23 04:12:04;;;;;;;3.13;0.97;;;5.10;99.90;;;;;;5011477;28;20195;-81
2022/11/23 04:14:29;;;;;;;1.90;0.77;;;5.10;99.90;;;;;;4996959;28;20222;-80
2022/11/23 04:16:55;;;;;;;4.70;0.70;;;5.10;99.90;;;;;;5016471;28;20454;-80
2022/11/23 04:19:21;;;;;;;3.93;1.33;;;5.00;99.90;;;;;;5015279;28;20189;-79
2022/11/23 04:21:46;;;;;;;6.97;1.07;;;5.00;99.90;;;;;;5014469;28;20216;-78
2022/11/23 04:24:12;;;;;;;7.93;1.33;;;5.00;99.90;;;;;;4998914;28;20204;-80
2022/11/23 04:26:39;;;;;;;5.93;0.90;;;4.90;99.90;;;;;;5015019;28;21103;-81
2022/11/23 04:29:05;;;;;;;3.23;0.93;;;5.00;99.90;;;;;;5015953;28;20207;-78
2022/11/23 04:31:31;;;;;;;4.60;0.90;;;4.90;99.90;;;;;;5016176;28;20481;-77
2022/11/23 04:33:57;;;;;;;4.05;1.25;;;4.90;99.90;;;;;;4999934;28;20203;-79
2022/11/23 04:36:23;;;;;;;4.27;1.00;;;4.90;99.90;;;;;;5019535;28;20942;-78
2022/11/23 04:38:49;;;;;;;2.67;0.70;;;5.00;99.90;;;;;;5018913;28;20526;-78
2022/11/23 04:41:14;;;;;;;4.43;1.57;;;4.90;99.90;;;;;;5017822;28;20953;-78
2022/11/23 04:43:40;;;;;;;9.00;1.00;;;5.00;99.90;;;;;;5018100;28;20444;-79
2022/11/23 04:46:06;;;;;;;2.20;1.00;;;4.90;99.90;;;;;;5013481;28;20676;-80
2022/11/23 04:48:32;;;;;;;2.13;0.80;;;5.10;99.90;;;;;;5012954;28;20208;-79
2022/11/23 04:50:58;;;;;;;4.83;0.90;;;4.90;99.90;;;;;;4995430;28;20204;-78
2022/11/23 04:53:23;;;;;;;4.90;1.13;;;5.00;99.90;;;;;;4995057;28;20193;-79
2022/11/23 04:55:49;;;;;;;2.23;0.70;;;4.90;99.90;;;;;;5011113;28;20421;-77
2022/11/23 04:58:15;;;;;;;3.37;1.73;;;5.00;99.90;;;;;;4995016;28;20503;-79
2022/11/23 05:00:40;;;;;;;2.77;0.83;;;5.00;99.90;;;;;;5012492;28;20690;-78
2022/11/23 05:03:06;;;;;;;2.47;0.83;;;5.00;99.90;;;;;;4995284;28;20183;-80
2022/11/23 05:05:31;;;;;;;4.80;1.13;;;5.00;99.90;;;;;;5012884;28;20722;-77
2022/11/23 05:07:58;;;;;;;2.00;0.80;;;5.00;99.90;;;;;;5011925;28;20220;-76
2022/11/23 05:10:24;;;;;;;8.05;1.08;;;5.00;99.90;;;;;;4995414;28;20291;-76
2022/11/23 05:12:49;;;;;;;4.03;1.13;;;5.00;99.90;;;;;;5013362;28;20569;-81
2022/11/23 05:15:15;;;;;;;5.07;0.93;;;5.00;99.90;;;;;;4995774;28;20420;-84
2022/11/23 05:17:41;;;;;;;2.67;0.83;;;5.00;99.90;;;;;;4996417;28;20197;-82
2022/11/23 05:20:07;;;;;;;4.57;1.20;;;4.90;99.90;;;;;;4979638;28;20292;-81
2022/11/23 05:22:33;;;;;;;4.63;0.87;;;4.90;99.90;;;;;;5012011;28;20181;-82
2022/11/23 05:24:58;;;;;;;4.93;0.80;;;4.90;99.90;;;;;;5009349;28;20432;-82
2022/11/23 05:27:24;;;;;;;1.53;0.90;;;4.80;99.90;;;;;;4994246;28;20221;-82
2022/11/23 05:29:50;;;;;;;2.00;1.07;;;4.80;99.90;;;;;;4994314;28;20204;-83
2022/11/23 05:32:16;;;;;;;2.70;0.80;;;4.70;99.90;;;;;;5010283;28;20667;-82
2022/11/23 05:34:41;;;;;;;1.43;0.83;;;4.70;99.90;;;;;;4994085;28;20176;-81
2022/11/23 05:37:07;;;;;;;2.60;1.00;;;4.70;99.90;;;;;;4977917;28;20960;-80
2022/11/23 05:39:35;;;;;;;4.27;0.93;;;4.60;99.90;;;;;;4993503;28;20193;-82
2022/11/23 05:42:01;;;;;;;6.65;1.50;;;4.60;99.90;;;;;;5009819;28;20196;-81
2022/11/23 05:44:27;;;;;;;4.77;1.00;;;4.60;99.90;;;;;;4993847;28;20200;-82
2022/11/23 05:46:52;;;;;;;1.83;1.20;;;4.60;99.90;;;;;;4993961;28;20760;-81
2022/11/23 05:49:18;;;;;;;5.67;1.30;;;4.50;99.90;;;;;;4993058;28;20190;-81
2022/11/23 05:51:43;;;;;;;9.33;1.60;;;4.60;99.90;;;;;;4992716;28;20243;-81
2022/11/23 05:54:09;;;;;;;6.87;1.80;;;4.50;99.90;;;;;;5009243;28;20184;-81
2022/11/23 05:56:34;;;;;;;5.67;1.57;;;4.50;99.90;;;;;;4995194;28;20208;-82
2022/11/23 05:59:00;;;;;;;3.43;1.80;;;4.50;99.90;;;;;;4978752;28;20725;-81
2022/11/23 06:01:26;;;;;;;4.57;1.43;;;4.50;99.90;;;;;;4977928;28;20259;-81
2022/11/23 06:03:51;;;;;;;5.10;1.40;;;4.50;99.90;;;;;;4993435;28;20682;-81
2022/11/23 06:06:17;;;;;;;7.13;2.70;;;4.50;99.90;;;;;;5009288;28;20188;-81
2022/11/23 06:08:43;;;;;;;5.80;1.50;;;4.40;99.90;;;;;;5009143;28;20620;-81
2022/11/23 06:11:08;;;;;;;2.60;1.63;;;4.50;99.90;;;;;;5008751;28;20215;-82
2022/11/23 06:13:34;;;;;;;5.37;1.90;;;4.50;99.90;;;;;;4992905;28;20262;-81
2022/11/23 06:16:00;;;;;;;9.00;2.13;;;4.40;99.90;;;;;;4992171;28;20195;-81
2022/11/23 06:18:26;;;;;;;2.60;1.50;;;4.40;99.90;;;;;;4975992;28;20208;-81
2022/11/23 06:20:51;;;;;;;4.30;1.70;;;4.40;99.90;;;;;;4992426;28;20988;-81
2022/11/23 06:23:17;;;;;;;7.10;1.30;;;4.40;99.90;;;;;;4993084;28;20197;-81
2022/11/23 06:25:43;;;;;;;8.23;1.43;;;4.40;99.90;;;;;;4991975;28;20207;-82
2022/11/23 06:28:08;;;;;;;2.37;1.00;;;4.40;99.90;;;;;;4992813;28;20216;-81
2022/11/23 06:30:34;;;;;;;1.53;1.30;;;4.40;99.90;;;;;;5008931;28;20941;-81
2022/11/23 06:33:03;;;;;;;3.60;1.17;;;4.60;99.90;;;;;;4992291;28;20191;-81
2022/11/23 06:35:29;;;;;;;3.73;1.20;;;4.40;99.90;;;;;;5010117;28;20227;-82
2022/11/23 06:37:55;;;;;;;6.10;1.33;;;4.40;99.90;;;;;;5008088;28;21031;-81
2022/11/23 06:40:21;;;;;;;4.40;0.90;;;4.40;99.90;;;;;;5008112;28;20923;-81
2022/11/23 06:42:47;;;;;;;1.83;1.00;;;4.40;99.90;;;;;;4994308;28;20192;-81
2022/11/23 06:45:13;;;;;;;12.50;1.60;;;4.30;99.90;;;;;;5009572;28;20508;-81
2022/11/23 06:47:38;;;;;;;5.87;1.07;;;4.30;99.90;;;;;;5007832;28;20558;-83
2022/11/23 06:50:05;;;;;;;4.37;1.00;;;4.30;99.90;;;;;;4975215;28;20546;-81
2022/11/23 06:52:31;;;;;;;2.40;1.20;;;4.30;99.90;;;;;;4991666;28;20678;-81
2022/11/23 06:54:56;;;;;;;2.40;1.10;;;4.30;99.90;;;;;;5007737;28;20436;-81
2022/11/23 06:57:22;;;;;;;8.50;2.57;;;4.40;99.90;;;;;;4991309;28;20565;-83
2022/11/23 06:59:47;;;;;;;2.27;1.27;;;4.30;99.90;;;;;;5007349;28;20213;-81
2022/11/23 07:02:13;;;;;;;8.33;2.47;;;4.20;99.90;;;;;;5007804;28;20667;-81
2022/11/23 07:04:39;;;;;;;6.07;1.20;;;4.20;99.90;;;;;;5007544;28;20189;-81
2022/11/23 07:07:07;;;;;;;6.70;1.53;;;4.20;99.90;;;;;;5007718;28;20467;-81
2022/11/23 07:09:33;;;;;;;7.30;1.83;;;4.20;99.90;;;;;;5007230;28;20189;-81
2022/11/23 07:11:59;;;;;;;4.50;1.50;;;4.20;99.90;;;;;;5009338;28;20494;-81
2022/11/23 07:14:24;;;;;;;5.73;2.43;;;4.20;99.90;;;;;;4975444;28;20460;-83
2022/11/23 07:16:50;;;;;;;2.53;1.30;;;4.20;99.90;;;;;;4992117;28;20185;-82
2022/11/23 07:19:16;;;;;;;6.77;2.57;;;4.30;99.90;;;;;;4992275;28;20657;-82
2022/11/23 07:21:41;;;;;;;3.93;1.40;;;4.20;99.90;;;;;;5009234;28;20440;-81
2022/11/23 07:24:07;;;;;;;4.07;1.60;;;4.30;99.90;;;;;;5008420;28;20192;-82
2022/11/23 07:26:33;;;;;;;3.37;1.40;;;4.20;99.90;;;;;;5007900;28;20196;-80
2022/11/23 07:28:58;;;;;;;12.10;1.60;;;4.20;99.90;;;;;;5007728;28;20189;-81
2022/11/23 07:31:24;;;;;;;9.87;1.70;;;4.20;99.90;;;;;;5007655;28;20284;-81
2022/11/23 07:33:49;;;;;;;3.83;1.90;;;4.30;99.90;;;;;;4975451;28;20200;-81
2022/11/23 07:36:15;;;;;;;2.93;1.67;;;4.40;99.90;;;;;;4991488;28;20185;-81
2022/11/23 07:38:41;;;;;;;3.90;1.80;;;4.50;99.90;;;;;;4991253;28;20199;-81
2022/11/23 07:41:07;;;;;;;1.57;1.20;;;4.50;99.90;;;;;;4991110;28;20710;-83
2022/11/23 07:43:32;;;;;;;7.17;1.50;;;4.50;99.90;;;;;;5007531;28;20199;-84
2022/11/23 07:45:58;;;;;;;9.03;1.97;;;4.40;99.90;;;;;;5007012;28;20940;-84
2022/11/23 07:48:24;;;;;;;4.03;1.70;;;4.60;99.90;;;;;;4990984;28;20314;-80
2022/11/23 07:50:53;;;;;;;3.13;1.70;;;4.30;99.90;;;;;;4995510;28;20353;-82
2022/11/23 07:53:19;;;;;;;7.40;1.73;;;4.40;99.90;;;;;;4995787;28;20453;-82
2022/11/23 07:55:45;;;;;;;2.90;1.70;;;4.50;99.90;;;;;;4996204;28;20664;-82
2022/11/23 07:58:11;;;;;;;3.70;1.47;;;4.70;99.90;;;;;;5012090;28;20427;-82
2022/11/23 08:00:37;;;;;;;2.53;1.47;;;4.80;99.90;;;;;;5011936;28;20663;-82
2022/11/23 08:03:03;;;;;;;4.40;2.10;;;5.00;99.90;;;;;;4995907;28;20547;-83
2022/11/23 08:05:33;;;;;;;6.40;2.57;;;5.30;99.90;;;;;;5012904;28;20423;-85
2022/11/23 08:08:00;;;;;;;4.60;1.53;;;5.60;99.90;;;;;;5011205;28;20468;-83
2022/11/23 08:10:30;;;;;;;6.57;3.67;;;6.20;99.90;;;;;;5011231;28;20984;-83
2022/11/23 08:13:02;;;;;;;5.63;3.77;;;6.70;99.90;;;;;;5013908;28;20861;-84
2022/11/23 08:15:27;;;;;;;9.70;5.60;;;7.30;99.90;;;;;;5012342;28;20431;-86
2022/11/23 08:17:57;;;;;;;10.23;4.60;;;7.80;99.90;;;;;;4978920;28;20469;-84
2022/11/23 08:20:24;;;;;;;8.67;4.40;;;8.10;99.90;;;;;;4995192;28;20900;-85
2022/11/23 08:22:49;;;;;;;4.90;3.17;;;8.50;99.90;;;;;;5011478;28;20432;-85
2022/11/23 08:25:15;;;;;;;5.97;2.93;;;8.40;99.90;;;;;;4994835;28;20427;-85
2022/11/23 08:27:41;;;;;;;6.63;2.60;;;8.80;99.90;;;;;;4994729;28;20225;-84
2022/11/23 08:30:07;;;;;;;11.93;5.83;;;9.00;99.90;;;;;;5012284;28;21008;-83
2022/11/23 08:32:32;;;;;;;7.50;4.47;;;9.70;99.90;;;;;;4994297;28;20248;-84
2022/11/23 08:34:58;;;;;;;6.00;3.30;;;10.80;97.70;;;;;;4978149;28;20517;-84
2022/11/23 08:37:24;;;;;;;10.00;4.67;;;12.00;93.90;;;;;;4993792;28;20196;-85
2022/11/23 08:39:49;;;;;;;4.93;3.07;;;12.80;90.70;;;;;;4993951;28;20213;-85
2022/11/23 08:42:15;;;;;;;4.57;2.73;;;13.70;86.60;;;;;;4993984;28;20193;-86
2022/11/23 08:44:41;;;;;;;4.07;2.60;;;14.40;83.20;;;;;;5010412;28;20193;-86
2022/11/23 08:47:07;;;;;;;4.53;3.40;;;15.20;78.30;;;;;;4977673;28;20531;-85
2022/11/23 08:49:32;;;;;;;7.30;3.57;;;15.60;77.30;;;;;;5011751;28;20215;-85
2022/11/23 08:51:59;;;;;;;4.30;2.70;;;16.20;72.80;;;;;;4980262;28;20257;-85
2022/11/23 08:54:24;;;;;;;4.43;2.67;;;16.80;71.30;;;;;;5012269;28;20188;-85
2022/11/23 08:56:50;;;;;;;5.20;2.90;;;16.70;67.80;;;;;;4979881;28;20446;-85
2022/11/23 08:59:17;;;;;;;3.33;2.30;;;15.60;66.30;;;;;;4995954;28;20199;-85
2022/11/23 09:01:43;;;;;;;4.10;1.97;;;14.80;70.10;;;;;;5014414;28;20840;-85
2022/11/23 09:04:09;;;;;;;6.10;2.03;;;13.50;74.00;;;;;;5015082;28;20428;-87
2022/11/23 09:06:35;;;;;;;5.63;2.40;;;13.10;77.00;;;;;;4981711;28;20538;-86
2022/11/23 09:09:01;;;;;;;2.90;1.60;;;12.60;77.10;;;;;;5014744;28;20439;-85
2022/11/23 09:11:27;;;;;;;5.60;1.60;;;12.10;80.00;;;;;;5015695;28;20725;-85
2022/11/23 09:13:52;;;;;;;4.03;1.50;;;11.90;82.70;;;;;;4998490;28;20194;-84
2022/11/23 09:16:19;;;;;;;2.90;1.80;;;11.60;85.30;;;;;;4997045;28;20197;-83
2022/11/23 09:18:45;;;;;;;5.63;2.10;;;11.40;85.30;;;;;;5014630;28;20752;-83
2022/11/23 09:21:11;;;;;;;4.00;1.80;;;12.40;83.60;;;;;;4999984;28;20506;-83
2022/11/23 09:23:37;;;;;;;2.40;1.43;;;13.30;79.60;;;;;;5014322;28;20301;-84
2022/11/23 09:26:04;;;;;;;2.13;1.43;;;13.40;76.10;;;;;;5013712;28;20509;-84
2022/11/23 09:28:30;;;;;;;4.30;1.97;;;14.00;73.90;;;;;;4997574;28;20770;-84
2022/11/23 09:30:56;;;;;;;3.53;1.83;;;13.60;74.80;;;;;;4998639;28;20451;-86
2022/11/23 09:33:23;;;;;;;2.83;2.17;;;13.90;75.70;;;;;;5013390;28;20425;-83
2022/11/23 09:36:03;;;;;;;5.20;1.90;;;14.30;73.30;;;;;;4997162;28;20189;-84
2022/11/23 09:38:29;;;;;;;2.60;1.97;;;14.60;73.40;;;;;;4995955;28;20529;-85
2022/11/23 09:41:22;;;;;;;5.80;2.13;;;13.70;72.30;;;;;;5011447;28;20590;-84
2022/11/23 09:44:23;;;;;;;2.97;2.40;;;13.50;73.30;;;;;;5011565;28;20478;-84
2022/11/23 09:47:07;;;;;;;3.03;1.60;;;14.40;74.20;;;;;;4978933;28;20484;-85
2022/11/23 09:50:10;;;;;;;2.30;1.60;;;13.20;73.20;;;;;;5011551;28;20417;-85
2022/11/23 09:52:41;;;;;;;1.87;1.40;;;14.60;71.20;;;;;;5000553;28;20496;-83
2022/11/23 09:55:23;;;;;;;1.97;1.10;;;14.80;72.60;;;;;;5009861;28;20423;-82
2022/11/23 09:57:55;;;;;;;2.40;1.30;;;13.70;69.00;;;;;;5010458;28;20419;-84
2022/11/23 10:00:22;;;;;;;2.70;1.60;;;13.90;72.90;;;;;;5009060;28;20804;-83
2022/11/23 10:02:48;;;;;;;1.83;1.50;;;13.30;72.30;;;;;;5009355;28;20426;-83
2022/11/23 10:05:24;;;;;;;3.47;1.20;;;13.50;75.30;;;;;;5009157;28;21016;-84
2022/11/23 10:08:08;;;;;;;4.40;1.13;;;12.60;73.20;;;;;;4993032;28;20482;-84
2022/11/23 10:11:04;;;;;;;2.63;1.53;;;14.00;74.40;;;;;;5008982;28;20798;-83
2022/11/23 10:14:02;;;;;;;3.93;1.10;;;14.20;72.00;;;;;;5012499;28;20780;-84
2022/11/23 10:17:01;;;;;;;2.33;1.37;;;13.30;71.40;;;;;;5010555;28;20417;-84
2022/11/23 10:19:40;;;;;;;3.67;1.63;;;14.30;69.90;;;;;;5011008;28;20894;-84
2022/11/23 10:22:09;;;;;;;5.40;1.37;;;15.40;71.90;;;;;;5010124;28;20431;-84
2022/11/23 10:24:44;;;;;;;1.50;1.30;;;17.50;66.70;;;;;;5010298;28;20423;-84
2022/11/23 10:27:16;;;;;;;2.80;1.20;;;16.00;62.10;;;;;;4992198;28;20470;-85
2022/11/23 10:29:42;;;;;;;3.67;1.10;;;16.80;65.30;;;;;;5010239;28;20974;-84
2022/11/23 10:32:26;;;;;;;2.13;1.70;;;14.90;65.00;;;;;;4977470;28;20490;-83
2022/11/23 10:35:12;;;;;;;1.77;1.50;;;14.80;68.90;;;;;;4993120;28;20432;-84
2022/11/23 10:37:39;;;;;;;1.60;1.23;;;15.70;67.30;;;;;;5009278;28;20425;-84
2022/11/23 10:40:24;;;;;;;1.47;1.10;;;15.10;68.60;;;;;;4993147;28;20540;-85
2022/11/23 10:42:58;;;;;;;2.53;1.37;;;14.80;72.40;;;;;;5008904;28;20944;-84
2022/11/23 10:45:28;;;;;;;1.57;1.10;;;15.50;71.00;;;;;;5009317;28;20906;-84
2022/11/23 10:47:58;;;;;;;1.70;1.60;;;16.10;67.00;;;;;;4992794;28;20474;-85
2022/11/23 10:50:39;;;;;;;1.90;1.40;;;17.40;66.30;;;;;;5008910;28;20517;-85
2022/11/23 10:53:05;;;;;;;1.50;1.10;;;17.70;67.00;;;;;;5008902;28;20521;-84
2022/11/23 10:55:56;;;;;;;1.70;1.47;;;18.10;63.50;;;;;;5010198;28;20512;-83
2022/11/23 10:58:28;;;;;;;5.40;1.70;;;16.80;63.00;;;;;;4985577;28;20253;-85
2022/11/23 11:01:10;;;;;;;2.30;1.20;;;14.70;65.20;;;;;;5013342;28;20440;-85
2022/11/23 11:03:36;;;;;;;6.40;1.43;;;13.40;71.40;;;;;;4994790;28;20809;-84
2022/11/23 11:06:03;;;;;;;2.60;1.27;;;13.30;74.60;;;;;;4992343;28;20484;-84
2022/11/23 11:08:48;;;;;;;2.93;1.43;;;11.90;74.70;;;;;;5008257;28;20787;-84
2022/11/23 11:11:35;;;;;;;2.70;1.13;;;12.80;79.90;;;;;;4993356;28;20880;-84
2022/11/23 11:14:16;;;;;;;7.67;1.93;;;12.60;79.70;;;;;;5009256;28;20420;-84
2022/11/23 11:16:56;;;;;;;7.80;1.37;;;12.90;79.20;;;;;;5009282;28;20450;-85
2022/11/23 11:19:25;;;;;;;2.90;1.40;;;12.40;79.00;;;;;;5007798;28;20432;-84
2022/11/23 11:21:50;;;;;;;3.27;1.60;;;12.90;78.60;;;;;;5008202;28;20424;-84
2022/11/23 11:24:40;;;;;;;2.23;1.50;;;13.40;77.20;;;;;;4992147;28;20431;-84
2022/11/23 11:27:15;;;;;;;4.53;1.30;;;13.20;77.70;;;;;;5008593;28;20217;-85
2022/11/23 11:29:44;;;;;;;1.23;1.00;;;12.40;78.80;;;;;;5008059;28;20437;-84
2022/11/23 11:32:24;;;;;;;1.70;1.17;;;12.10;80.20;;;;;;5008188;28;20452;-84
2022/11/23 11:35:13;;;;;;;2.90;1.50;;;11.20;83.30;;;;;;5007878;28;20539;-80
2022/11/23 11:37:46;;;;;;;1.50;1.20;;;11.40;85.90;;;;;;5008818;28;20484;-80
2022/11/23 11:40:28;;;;;;;5.00;1.77;;;11.10;88.50;;;;;;5010095;28;20998;-79
2022/11/23 11:43:19;;;;;;;2.70;1.30;;;11.80;87.00;;;;;;5009190;28;20415;-80
2022/11/23 11:45:47;;;;;;;3.73;1.30;;;12.30;85.00;;;;;;5007884;28;20430;-79
2022/11/23 11:48:23;;;;;;;2.77;1.50;;;12.70;83.40;;;;;;5007701;28;20486;-79
2022/11/23 11:50:55;;;;;;;4.97;1.60;;;13.10;83.10;;;;;;5007674;28;20931;-82
2022/11/23 11:53:29;;;;;;;3.30;1.27;;;13.00;82.80;;;;;;5007891;28;20433;-80
2022/11/23 11:55:59;;;;;;;4.13;1.40;;;12.40;84.80;;;;;;5008171;28;20438;-85
2022/11/23 11:58:25;;;;;;;3.53;1.67;;;12.30;85.20;;;;;;4975672;28;20883;-84
2022/11/23 12:01:16;;;;;;;3.53;1.30;;;11.80;85.40;;;;;;4991774;28;20466;-83
2022/11/23 12:03:51;;;;;;;2.47;1.53;;;11.50;89.30;;;;;;5007917;28;20419;-85
2022/11/23 12:06:54;;;;;;;2.60;1.70;;;11.20;90.50;;;;;;5007894;28;20426;-84
2022/11/23 12:09:29;;;;;;;5.50;1.77;;;11.10;91.80;;;;;;4999574;28;20439;-84
2022/11/23 12:11:56;;;;;;;7.93;1.67;;;11.10;91.80;;;;;;5009618;28;20422;-85
2022/11/23 12:14:22;;;;;;;4.93;1.60;;;11.20;92.40;;;;;;4991392;28;20850;-84
2022/11/23 12:17:12;;;;;;;2.60;1.37;;;11.10;92.00;;;;;;4974740;28;20430;-83
2022/11/23 12:19:45;;;;;;;3.90;1.30;;;11.10;91.60;;;;;;5009049;28;20447;-84
2022/11/23 12:22:48;;;;;;;7.10;1.20;;;11.10;92.60;;;;;;5008286;28;20456;-85
2022/11/23 12:25:24;;;;;;;3.50;1.17;;;11.00;92.00;;;;;;5007818;28;20433;-84
2022/11/23 12:28:20;;;;;;;2.70;1.23;;;10.90;93.60;;;;;;5007238;28;20606;-83
2022/11/23 12:31:22;;;;;;;5.33;1.50;;;11.00;93.50;;;;;;5008227;28;20984;-84
2022/11/23 12:34:10;;;;;;;2.73;1.10;;;11.00;93.30;;;;;;4957503;28;20513;-84
2022/11/23 12:36:48;;;;;;;4.50;1.30;;;11.00;92.40;;;;;;5011200;28;20416;-83
2022/11/23 12:39:16;;;;;;;4.17;1.20;;;11.10;91.80;;;;;;5010802;28;20426;-82
2022/11/23 12:41:57;;;;;;;4.23;1.00;;;11.30;91.80;;;;;;5010965;28;20543;-84
2022/11/23 12:44:54;;;;;;;3.33;1.23;;;10.80;91.30;;;;;;5010980;28;20414;-83
2022/11/23 12:47:49;;;;;;;2.97;1.07;;;10.70;92.70;;;;;;5011511;28;20469;-85
2022/11/23 12:50:40;;;;;;;7.13;1.00;;;10.40;91.70;;;;;;5012422;28;20436;-85
2022/11/23 12:53:35;;;;;;;3.27;0.93;;;10.30;90.50;;;;;;5011054;28;20420;-84
2022/11/23 12:56:16;;;;;;;5.20;1.00;;;10.30;90.30;;;;;;4989315;28;20437;-85
2022/11/23 12:58:45;;;;;;;3.27;1.03;;;10.30;91.30;;;;;;5010457;28;21277;-85
2022/11/23 13:01:33;;;;;;;4.27;1.90;;;10.20;90.80;;;;;;4993447;28;20456;-86
2022/11/23 13:04:23;;;;;;;2.43;0.80;;;10.20;90.80;;;;;;4993207;28;20836;-85
2022/11/23 13:06:57;;;;;;;2.60;0.90;;;10.10;89.70;;;;;;5009441;28;20461;-85